Terminal Aerodrome Forecast
Issued by NWS

Home | Current Version | Previous Version | Text Only | Print | Product List | Glossary On
Versions: 1 2 3 4 5 6 7 8 9 10 11 12 13 14 15 16 17 18 19 20 21
000
FTAK31 PAJN 240539
TAFAYA
TAF
PAYA 240539Z 2406/2506 05005KT P6SM -SN OVC035
     FM240800 06009KT P6SM SCT040 OVC100 WS020/04030KT
     FM241200 06012KT P6SM OVC100 WS020/04040KT
     FM242300 07010KT P6SM BKN100 WS020/04030KT
      AMD LTD TO CLD VIS AND WIND=

USA.gov is the U.S. government's official web portal to all federal, state and local government web resources and services.